createdAt,value
2023-02-16T00:00:42.465Z,0.70
2023-02-16T00:03:21.563Z,0.50
2023-02-16T00:05:50.896Z,0.40
2023-02-16T00:08:19.950Z,0.80
2023-02-16T00:11:08.019Z,0.70
2023-02-16T00:13:44.376Z,0.80
2023-02-16T00:16:16.944Z,0.90
2023-02-16T00:18:44.382Z,1.10
2023-02-16T00:21:12.753Z,0.90
2023-02-16T00:23:39.802Z,0.80
2023-02-16T00:26:20.298Z,0.90
2023-02-16T00:28:59.087Z,0.60
2023-02-16T00:31:29.020Z,0.80
2023-02-16T00:33:56.115Z,0.50
2023-02-16T00:36:26.367Z,0.50
2023-02-16T00:38:54.441Z,0.60
2023-02-16T00:41:42.471Z,0.60
2023-02-16T00:44:19.327Z,0.70
2023-02-16T00:46:47.736Z,0.80
2023-02-16T00:49:20.812Z,0.60
2023-02-16T00:51:49.756Z,0.70
2023-02-16T00:54:16.835Z,0.60
2023-02-16T00:56:44.973Z,0.60
2023-02-16T00:59:19.817Z,0.80
2023-02-16T01:01:47.510Z,0.90
2023-02-16T01:04:23.437Z,0.90
2023-02-16T01:07:09.366Z,0.80
2023-02-16T01:09:54.782Z,0.60
2023-02-16T01:12:22.486Z,0.50
2023-02-16T01:14:54.343Z,0.60
2023-02-16T01:17:31.692Z,0.50
2023-02-16T01:19:58.590Z,0.50
2023-02-16T01:22:25.540Z,0.50
2023-02-16T01:24:52.534Z,0.60
2023-02-16T01:27:19.516Z,0.40
2023-02-16T01:29:46.463Z,0.40
2023-02-16T01:32:13.562Z,0.50
2023-02-16T01:34:40.857Z,0.40
2023-02-16T01:37:15.588Z,0.60
2023-02-16T01:39:43.651Z,0.60
2023-02-16T01:42:33.649Z,0.60
2023-02-16T01:45:16.028Z,0.70
2023-02-16T01:47:53.371Z,0.70
2023-02-16T01:50:28.887Z,0.60
2023-02-16T01:52:58.555Z,0.60
2023-02-16T01:55:31.742Z,0.80
2023-02-16T01:58:39.585Z,0.80
2023-02-16T02:01:40.445Z,0.90
2023-02-16T02:04:59.821Z,0.90
2023-02-16T02:07:48.109Z,1.00
2023-02-16T02:10:26.772Z,0.80
2023-02-16T02:13:13.061Z,0.90
2023-02-16T02:15:40.069Z,0.80
2023-02-16T02:18:09.024Z,0.80
2023-02-16T02:21:32.550Z,0.70
2023-02-16T02:24:08.313Z,0.50
2023-02-16T02:26:51.930Z,0.60
2023-02-16T02:29:24.704Z,0.60
2023-02-16T02:32:25.609Z,0.70
2023-02-16T02:35:47.511Z,0.50
2023-02-16T02:38:24.518Z,0.60
2023-02-16T02:40:59.999Z,0.60
2023-02-16T02:43:39.164Z,0.80
2023-02-16T02:46:37.934Z,0.80
2023-02-16T02:49:04.952Z,0.70
2023-02-16T02:51:33.890Z,0.70
2023-02-16T02:54:30.759Z,0.70
2023-02-16T02:57:54.291Z,0.80
2023-02-16T03:00:42.008Z,0.80
2023-02-16T03:03:32.065Z,0.80
2023-02-16T03:06:26.578Z,0.90
2023-02-16T03:09:04.951Z,0.80
2023-02-16T03:11:50.418Z,0.90
2023-02-16T03:14:35.359Z,0.90
2023-02-16T03:17:31.830Z,0.80
2023-02-16T03:20:20.872Z,0.90
2023-02-16T03:23:06.135Z,0.90
2023-02-16T03:25:56.081Z,1.00
2023-02-16T03:28:46.831Z,1.10
2023-02-16T03:31:22.807Z,0.90
2023-02-16T03:33:54.747Z,0.90
2023-02-16T03:36:27.528Z,0.90
2023-02-16T03:38:56.101Z,0.90
2023-02-16T03:41:24.745Z,1.10
2023-02-16T03:43:52.073Z,1.10
2023-02-16T03:46:23.098Z,1.00
2023-02-16T03:48:50.110Z,1.10
2023-02-16T03:51:18.122Z,1.00
2023-02-16T03:53:45.142Z,1.10
2023-02-16T03:56:12.090Z,1.00
2023-02-16T03:58:39.284Z,1.00
2023-02-16T04:01:06.799Z,1.10
2023-02-16T04:03:34.175Z,1.00
2023-02-16T04:06:01.400Z,1.10
2023-02-16T04:08:29.439Z,1.10
2023-02-16T04:10:57.522Z,1.10
2023-02-16T04:13:25.083Z,1.00
2023-02-16T04:15:52.779Z,1.20
2023-02-16T04:18:19.864Z,1.10
2023-02-16T04:20:46.785Z,1.20
2023-02-16T04:23:13.678Z,1.10
2023-02-16T04:25:42.739Z,1.00
2023-02-16T04:28:09.714Z,1.10
2023-02-16T04:30:36.814Z,1.00
2023-02-16T04:33:04.861Z,1.00
2023-02-16T04:35:33.853Z,1.10
2023-02-16T04:38:01.824Z,1.10
2023-02-16T04:40:28.880Z,1.10
2023-02-16T04:42:55.767Z,1.00
2023-02-16T04:45:22.677Z,1.10
2023-02-16T04:47:49.605Z,1.20
2023-02-16T04:50:18.687Z,1.10
2023-02-16T04:52:45.835Z,1.30
2023-02-16T04:55:14.315Z,1.10
2023-02-16T04:57:42.371Z,1.10
2023-02-16T05:00:11.950Z,1.00
2023-02-16T05:02:38.940Z,1.10
2023-02-16T05:05:06.297Z,1.00
2023-02-16T05:07:36.220Z,0.90
2023-02-16T05:10:03.521Z,1.00
2023-02-16T05:12:50.684Z,1.20
2023-02-16T05:15:17.670Z,1.20
2023-02-16T05:17:45.615Z,1.20
2023-02-16T05:20:13.138Z,1.10
2023-02-16T05:22:40.024Z,1.00
2023-02-16T05:25:07.721Z,1.10
2023-02-16T05:27:34.736Z,1.10
2023-02-16T05:30:01.906Z,1.00
2023-02-16T05:32:30.039Z,1.10
2023-02-16T05:34:56.977Z,1.20
2023-02-16T05:37:23.920Z,1.10
2023-02-16T05:39:52.734Z,1.00
2023-02-16T05:42:19.647Z,1.00
2023-02-16T05:44:46.576Z,1.10
2023-02-16T05:47:17.472Z,0.90
2023-02-16T05:49:44.501Z,1.10
2023-02-16T05:52:12.498Z,1.00
2023-02-16T05:54:39.400Z,1.00
2023-02-16T05:57:06.790Z,1.10
2023-02-16T05:59:33.639Z,1.00
2023-02-16T06:02:01.679Z,1.00
2023-02-16T06:04:29.008Z,1.00
2023-02-16T06:06:56.915Z,1.10
2023-02-16T06:09:23.969Z,0.90
2023-02-16T06:11:51.867Z,0.90
2023-02-16T06:14:22.060Z,1.10
2023-02-16T06:16:51.671Z,0.90
2023-02-16T06:19:19.951Z,1.00
2023-02-16T06:21:47.756Z,0.90
2023-02-16T06:24:16.126Z,1.00
2023-02-16T06:26:44.218Z,1.10
2023-02-16T06:29:12.183Z,0.90
2023-02-16T06:31:39.300Z,0.80
2023-02-16T06:34:06.712Z,1.00
2023-02-16T06:36:34.208Z,1.00
2023-02-16T06:39:02.397Z,1.00
2023-02-16T06:41:32.106Z,0.90
2023-02-16T06:44:05.233Z,0.80
2023-02-16T06:46:32.758Z,0.60
2023-02-16T06:49:02.363Z,0.50
2023-02-16T06:51:31.826Z,0.50
2023-02-16T06:53:59.199Z,0.60
2023-02-16T06:56:26.349Z,0.70
2023-02-16T06:58:54.380Z,0.70
2023-02-16T07:01:26.069Z,0.80
2023-02-16T07:03:55.770Z,0.80
2023-02-16T07:06:26.003Z,0.90
2023-02-16T07:08:53.764Z,0.70
2023-02-16T07:11:21.348Z,0.70
2023-02-16T07:13:48.350Z,0.80
2023-02-16T07:16:15.706Z,0.70
2023-02-16T07:18:43.319Z,0.70
2023-02-16T07:21:11.491Z,0.70
2023-02-16T07:23:38.499Z,0.70
2023-02-16T07:26:06.532Z,0.60
2023-02-16T07:28:33.542Z,0.50
2023-02-16T07:31:14.010Z,0.60
2023-02-16T07:33:41.369Z,0.90
2023-02-16T07:36:11.767Z,1.00
2023-02-16T07:38:41.875Z,1.10
2023-02-16T07:41:10.133Z,1.20
2023-02-16T07:43:39.234Z,1.20
2023-02-16T07:46:06.296Z,1.30
2023-02-16T07:48:33.260Z,1.30
2023-02-16T07:51:00.266Z,1.30
2023-02-16T07:53:27.276Z,1.40
2023-02-16T07:55:57.100Z,1.60
2023-02-16T07:58:27.379Z,1.70
2023-02-16T08:01:09.642Z,1.90
2023-02-16T08:03:36.748Z,1.90
2023-02-16T08:06:05.457Z,2.00
2023-02-16T08:08:32.738Z,2.00
2023-02-16T08:11:00.961Z,2.10
2023-02-16T08:13:27.936Z,2.20
2023-02-16T08:15:55.983Z,2.20
2023-02-16T08:18:22.895Z,2.40
2023-02-16T08:21:03.188Z,2.40
2023-02-16T08:23:31.687Z,2.50
2023-02-16T08:25:59.765Z,2.50
2023-02-16T08:28:28.873Z,2.70
2023-02-16T08:30:56.462Z,2.80
2023-02-16T08:33:23.511Z,2.80
2023-02-16T08:35:50.407Z,2.90
2023-02-16T08:38:17.365Z,3.00
2023-02-16T08:40:49.288Z,3.10
2023-02-16T08:43:16.292Z,3.20
2023-02-16T08:45:49.708Z,3.20
2023-02-16T08:48:17.843Z,3.20
2023-02-16T08:50:55.070Z,3.30
2023-02-16T08:53:23.223Z,3.40
2023-02-16T08:55:58.652Z,3.50
2023-02-16T08:58:26.899Z,3.60
2023-02-16T09:00:53.869Z,3.80
2023-02-16T09:03:20.855Z,3.90
2023-02-16T09:05:50.021Z,3.90
2023-02-16T09:08:17.393Z,3.90
2023-02-16T09:10:46.973Z,4.00
2023-02-16T09:13:16.461Z,4.10
2023-02-16T09:15:48.107Z,4.30
2023-02-16T09:18:16.584Z,4.50
2023-02-16T09:20:46.873Z,4.60
2023-02-16T09:23:14.034Z,4.70
2023-02-16T09:25:41.920Z,4.90
2023-02-16T09:28:10.831Z,5.10
2023-02-16T09:30:39.176Z,5.20
2023-02-16T09:33:07.798Z,5.30
2023-02-16T09:35:34.707Z,5.50
2023-02-16T09:38:02.477Z,5.60
2023-02-16T09:40:30.308Z,5.80
2023-02-16T09:43:14.671Z,5.90
2023-02-16T09:45:49.517Z,6.00
2023-02-16T09:48:42.870Z,6.20
2023-02-16T09:51:20.925Z,6.30
2023-02-16T09:54:03.809Z,6.60
2023-02-16T09:56:51.653Z,6.70
2023-02-16T09:59:52.346Z,6.80
2023-02-16T10:02:52.808Z,7.10
2023-02-16T10:05:31.170Z,7.40
2023-02-16T10:08:14.450Z,7.70
2023-02-16T10:11:31.292Z,8.00
2023-02-16T10:14:08.012Z,7.90
2023-02-16T10:16:46.788Z,7.90
2023-02-16T10:19:40.276Z,8.00
2023-02-16T10:22:17.363Z,8.10
2023-02-16T10:25:02.505Z,8.40
2023-02-16T10:27:40.625Z,8.50
2023-02-16T10:30:23.038Z,8.50
2023-02-16T10:33:14.315Z,8.50
2023-02-16T10:35:52.415Z,8.60
2023-02-16T10:38:38.183Z,8.80
2023-02-16T10:41:23.009Z,8.80
2023-02-16T10:43:55.269Z,8.90
2023-02-16T10:46:26.383Z,9.00
2023-02-16T10:48:55.612Z,9.20
2023-02-16T10:51:28.227Z,9.30
2023-02-16T10:54:08.816Z,9.40
2023-02-16T10:56:44.463Z,9.30
2023-02-16T10:59:33.959Z,9.40
2023-02-16T11:02:09.208Z,9.50
2023-02-16T11:04:43.052Z,9.70
2023-02-16T11:07:18.757Z,9.50
2023-02-16T11:09:53.894Z,9.50
2023-02-16T11:12:41.776Z,9.50
2023-02-16T11:15:25.236Z,9.50
2023-02-16T11:17:58.138Z,9.70
2023-02-16T11:20:34.693Z,9.90
2023-02-16T11:23:28.977Z,10.00
2023-02-16T11:26:12.505Z,9.90
2023-02-16T11:28:44.013Z,10.00
2023-02-16T11:31:33.361Z,10.00
2023-02-16T11:34:13.889Z,10.00
2023-02-16T11:36:43.647Z,10.30
2023-02-16T11:39:24.512Z,10.50
2023-02-16T11:42:26.424Z,10.80
2023-02-16T11:44:58.833Z,11.00
2023-02-16T11:47:36.666Z,11.00
2023-02-16T11:50:32.800Z,10.90
2023-02-16T11:53:12.306Z,11.10
2023-02-16T11:55:46.820Z,11.20
2023-02-16T11:58:23.005Z,11.30
2023-02-16T12:01:25.853Z,11.30
2023-02-16T12:04:46.328Z,11.40
2023-02-16T12:07:37.521Z,11.40
2023-02-16T12:10:29.008Z,11.50
2023-02-16T12:13:26.568Z,11.40
2023-02-16T12:16:08.965Z,11.30
2023-02-16T12:18:51.489Z,11.40
2023-02-16T12:21:43.089Z,11.40
2023-02-16T12:24:22.560Z,11.50
2023-02-16T12:26:57.756Z,11.40
2023-02-16T12:29:54.137Z,11.30
2023-02-16T12:32:46.959Z,11.30
2023-02-16T12:35:56.898Z,11.30
2023-02-16T12:38:47.150Z,11.30
2023-02-16T12:41:25.672Z,11.50
2023-02-16T12:43:59.268Z,11.70
2023-02-16T12:46:43.136Z,11.80
2023-02-16T12:49:18.529Z,11.90
2023-02-16T12:52:00.592Z,11.80
2023-02-16T12:54:45.029Z,11.70
2023-02-16T12:57:18.305Z,11.70
2023-02-16T13:00:17.824Z,11.80
2023-02-16T13:02:51.607Z,11.90
2023-02-16T13:05:25.948Z,11.90
2023-02-16T13:08:06.471Z,11.90
2023-02-16T13:10:52.252Z,11.90
2023-02-16T13:13:25.165Z,12.00
2023-02-16T13:16:27.481Z,12.10
2023-02-16T13:18:57.204Z,12.00
2023-02-16T13:22:13.524Z,12.30
2023-02-16T13:25:14.681Z,12.40
2023-02-16T13:27:45.525Z,12.40
2023-02-16T13:31:04.697Z,12.50
2023-02-16T13:34:19.461Z,12.40
2023-02-16T13:37:20.778Z,12.40
2023-02-16T13:40:24.866Z,12.30
2023-02-16T13:43:20.942Z,12.40
2023-02-16T13:45:53.807Z,12.50
2023-02-16T13:48:48.788Z,12.60
2023-02-16T13:51:23.315Z,12.70
2023-02-16T13:54:02.420Z,12.60
2023-02-16T13:56:29.826Z,12.50
2023-02-16T13:59:00.140Z,12.50
2023-02-16T14:01:37.681Z,12.60
2023-02-16T14:04:12.084Z,12.60
2023-02-16T14:06:43.378Z,12.50
2023-02-16T14:09:16.418Z,12.50
2023-02-16T14:12:11.501Z,12.40
2023-02-16T14:14:57.361Z,12.40
2023-02-16T14:17:28.816Z,12.40
2023-02-16T14:20:05.240Z,12.40
2023-02-16T14:22:57.278Z,12.40
2023-02-16T14:25:24.213Z,12.40
2023-02-16T14:27:58.794Z,12.40
2023-02-16T14:30:53.427Z,12.40
2023-02-16T14:33:48.556Z,12.40
2023-02-16T14:36:20.193Z,12.50
2023-02-16T14:38:52.049Z,12.40
2023-02-16T14:41:33.836Z,12.40
2023-02-16T14:44:06.757Z,12.40
2023-02-16T14:46:58.254Z,12.40
2023-02-16T14:50:11.754Z,12.40
2023-02-16T14:53:03.830Z,12.30
2023-02-16T14:56:25.658Z,12.30
2023-02-16T14:59:25.127Z,12.30
2023-02-16T15:01:52.156Z,12.20
2023-02-16T15:04:33.655Z,12.20
2023-02-16T15:07:05.353Z,12.20
2023-02-16T15:09:34.724Z,12.30
2023-02-16T15:12:24.122Z,12.30
2023-02-16T15:14:58.193Z,12.30
2023-02-16T15:17:38.031Z,12.30
2023-02-16T15:20:24.964Z,12.30
2023-02-16T15:22:59.066Z,12.30
2023-02-16T15:25:27.790Z,12.30
2023-02-16T15:28:05.929Z,12.30
2023-02-16T15:30:36.139Z,12.30
2023-02-16T15:33:26.883Z,12.30
2023-02-16T15:36:01.775Z,12.20
2023-02-16T15:38:39.708Z,12.20
2023-02-16T15:41:26.321Z,12.10
2023-02-16T15:43:53.589Z,12.10
2023-02-16T15:46:39.735Z,12.10
2023-02-16T15:49:15.052Z,12.10
2023-02-16T15:51:43.208Z,11.90
2023-02-16T15:54:27.760Z,12.00
2023-02-16T15:57:00.682Z,12.00
2023-02-16T15:59:41.341Z,11.90
2023-02-16T16:02:43.962Z,11.90
2023-02-16T16:05:28.641Z,12.00
2023-02-16T16:07:57.226Z,11.90
2023-02-16T16:10:36.765Z,11.90
2023-02-16T16:13:08.857Z,11.90
2023-02-16T16:15:43.213Z,11.90
2023-02-16T16:18:51.040Z,11.90
2023-02-16T16:21:19.857Z,11.90
2023-02-16T16:24:03.501Z,11.90
2023-02-16T16:27:13.595Z,11.90
2023-02-16T16:29:47.625Z,11.80
2023-02-16T16:32:18.400Z,11.80
2023-02-16T16:34:45.740Z,11.80
2023-02-16T16:37:27.106Z,11.80
2023-02-16T16:40:01.964Z,11.70
2023-02-16T16:42:31.082Z,11.80
2023-02-16T16:45:25.565Z,11.70
2023-02-16T16:47:52.952Z,11.80
2023-02-16T16:50:39.488Z,11.80
2023-02-16T16:53:31.391Z,11.70
2023-02-16T16:56:00.599Z,11.70
2023-02-16T16:58:30.665Z,11.60
2023-02-16T17:00:57.998Z,11.50
2023-02-16T17:03:25.334Z,11.60
2023-02-16T17:05:52.577Z,11.50
2023-02-16T17:08:19.727Z,11.40
2023-02-16T17:10:46.890Z,11.50
2023-02-16T17:13:19.462Z,11.40
2023-02-16T17:15:58.018Z,11.50
2023-02-16T17:18:25.036Z,11.40
2023-02-16T17:20:53.321Z,11.40
2023-02-16T17:23:22.215Z,11.50
2023-02-16T17:25:50.680Z,11.40
2023-02-16T17:28:19.959Z,11.40
2023-02-16T17:30:46.918Z,11.30
2023-02-16T17:33:14.227Z,11.20
2023-02-16T17:35:43.486Z,11.30
2023-02-16T17:38:19.231Z,11.30
2023-02-16T17:40:52.283Z,11.20
2023-02-16T17:43:21.895Z,11.30
2023-02-16T17:45:49.693Z,11.40
2023-02-16T17:48:21.610Z,11.50
2023-02-16T17:50:49.420Z,11.40
2023-02-16T17:53:19.798Z,11.40
2023-02-16T17:55:50.165Z,11.30
2023-02-16T17:58:17.967Z,11.30
2023-02-16T18:00:46.077Z,11.40
2023-02-16T18:03:13.128Z,11.30
2023-02-16T18:05:40.200Z,11.30
2023-02-16T18:08:07.674Z,11.40
2023-02-16T18:10:46.662Z,11.30
2023-02-16T18:13:14.557Z,11.20
2023-02-16T18:15:46.158Z,11.20
2023-02-16T18:18:17.530Z,11.30
2023-02-16T18:20:45.202Z,11.10
2023-02-16T18:23:12.192Z,11.20
2023-02-16T18:25:43.929Z,11.10
2023-02-16T18:28:21.117Z,11.00
2023-02-16T18:30:49.267Z,10.90
2023-02-16T18:33:19.014Z,10.80
2023-02-16T18:35:45.921Z,10.80
2023-02-16T18:38:13.310Z,10.70
2023-02-16T18:40:43.453Z,10.90
2023-02-16T18:43:11.523Z,10.90
2023-02-16T18:45:40.837Z,11.00
2023-02-16T18:48:08.565Z,10.90
2023-02-16T18:50:36.896Z,11.10
2023-02-16T18:53:04.006Z,11.00
2023-02-16T18:55:34.002Z,10.90
2023-02-16T18:58:07.724Z,10.90
2023-02-16T19:00:36.290Z,10.90
2023-02-16T19:03:03.560Z,10.80
2023-02-16T19:05:32.660Z,11.10
2023-02-16T19:07:59.984Z,11.00
2023-02-16T19:10:27.435Z,10.90
2023-02-16T19:12:54.308Z,10.80
2023-02-16T19:15:21.486Z,10.90
2023-02-16T19:17:48.772Z,10.60
2023-02-16T19:20:18.470Z,10.60
2023-02-16T19:22:46.732Z,10.50
2023-02-16T19:25:14.781Z,10.40
2023-02-16T19:27:42.246Z,10.50
2023-02-16T19:30:09.926Z,10.60
2023-02-16T19:32:38.480Z,10.70
2023-02-16T19:35:05.581Z,10.60
2023-02-16T19:37:32.483Z,10.60
2023-02-16T19:39:59.444Z,10.60
2023-02-16T19:42:26.351Z,10.70
2023-02-16T19:44:53.397Z,10.70
2023-02-16T19:47:20.363Z,10.80
2023-02-16T19:49:47.268Z,10.80
2023-02-16T19:52:14.177Z,10.80
2023-02-16T19:54:41.378Z,10.80
2023-02-16T19:57:08.267Z,10.80
2023-02-16T19:59:35.281Z,10.70
2023-02-16T20:02:02.347Z,10.90
2023-02-16T20:04:29.414Z,10.80
2023-02-16T20:06:56.496Z,10.90
2023-02-16T20:09:24.790Z,11.00
2023-02-16T20:11:52.366Z,11.10
2023-02-16T20:14:19.342Z,11.00
2023-02-16T20:16:46.375Z,11.10
2023-02-16T20:19:13.382Z,11.10
2023-02-16T20:21:44.101Z,11.10
2023-02-16T20:24:13.984Z,11.10
2023-02-16T20:26:45.164Z,11.10
2023-02-16T20:29:16.264Z,11.00
2023-02-16T20:31:55.592Z,11.00
2023-02-16T20:34:26.376Z,11.10
2023-02-16T20:36:54.322Z,10.90
2023-02-16T20:39:22.198Z,10.90
2023-02-16T20:41:49.449Z,10.90
2023-02-16T20:44:18.458Z,10.90
2023-02-16T20:46:45.524Z,10.90
2023-02-16T20:49:13.469Z,10.80
2023-02-16T20:51:41.379Z,10.80
2023-02-16T20:54:08.622Z,10.80
2023-02-16T20:56:35.560Z,10.80
2023-02-16T20:59:02.722Z,10.80
2023-02-16T21:01:52.847Z,10.80
2023-02-16T21:04:20.708Z,10.80
2023-02-16T21:06:49.557Z,10.80
2023-02-16T21:09:17.128Z,10.70
2023-02-16T21:11:44.275Z,10.80
2023-02-16T21:14:13.357Z,10.70
2023-02-16T21:16:41.091Z,10.80
2023-02-16T21:19:20.928Z,10.70
2023-02-16T21:21:49.542Z,10.80
2023-02-16T21:24:16.583Z,10.90
2023-02-16T21:26:43.757Z,10.80
2023-02-16T21:29:10.726Z,10.80
2023-02-16T21:31:37.754Z,10.80
2023-02-16T21:34:04.763Z,10.80
2023-02-16T21:36:31.756Z,10.80
2023-02-16T21:39:02.746Z,10.80
2023-02-16T21:41:30.599Z,10.80
2023-02-16T21:44:01.539Z,10.70
2023-02-16T21:46:35.618Z,10.70
2023-02-16T21:49:11.129Z,10.80
2023-02-16T21:51:41.190Z,10.70
2023-02-16T21:54:14.158Z,10.70
2023-02-16T21:56:45.154Z,10.70
2023-02-16T21:59:15.300Z,10.70
2023-02-16T22:01:50.931Z,10.70
2023-02-16T22:04:21.781Z,10.70
2023-02-16T22:06:50.637Z,10.70
2023-02-16T22:09:21.266Z,10.70
2023-02-16T22:11:49.572Z,10.70
2023-02-16T22:14:16.587Z,10.70
2023-02-16T22:16:46.109Z,10.70
2023-02-16T22:19:15.738Z,10.70
2023-02-16T22:21:44.533Z,10.60
2023-02-16T22:24:17.124Z,10.60
2023-02-16T22:26:45.180Z,10.60
2023-02-16T22:29:12.548Z,10.60
2023-02-16T22:31:45.171Z,10.60
2023-02-16T22:34:16.088Z,10.60
2023-02-16T22:36:43.213Z,10.60
2023-02-16T22:39:13.071Z,10.60
2023-02-16T22:41:40.107Z,10.70
2023-02-16T22:44:07.917Z,10.70
2023-02-16T22:46:35.405Z,10.60
2023-02-16T22:49:02.629Z,10.70
2023-02-16T22:51:30.835Z,10.60
2023-02-16T22:54:00.103Z,10.60
2023-02-16T22:56:27.602Z,10.50
2023-02-16T22:58:57.511Z,10.50
2023-02-16T23:01:29.330Z,10.50
2023-02-16T23:03:59.733Z,10.50
2023-02-16T23:06:33.483Z,10.60
2023-02-16T23:09:13.455Z,10.60
2023-02-16T23:11:40.462Z,10.30
2023-02-16T23:14:16.233Z,10.40
2023-02-16T23:16:49.517Z,10.40
2023-02-16T23:19:22.059Z,10.50
2023-02-16T23:21:49.493Z,10.40
2023-02-16T23:24:20.924Z,10.40
2023-02-16T23:26:48.792Z,10.30
2023-02-16T23:29:15.911Z,10.40
2023-02-16T23:31:46.875Z,10.40
2023-02-16T23:34:15.058Z,10.30
2023-02-16T23:36:42.260Z,10.30
2023-02-16T23:39:13.460Z,10.30
2023-02-16T23:41:41.684Z,10.40
2023-02-16T23:44:10.375Z,10.30
2023-02-16T23:46:37.409Z,10.20
2023-02-16T23:49:04.377Z,10.20
2023-02-16T23:51:31.375Z,10.30
2023-02-16T23:53:58.290Z,10.20
2023-02-16T23:56:27.830Z,10.10
2023-02-16T23:59:02.008Z,10.20
